createdAt,value
2019-03-13T00:02:31.135Z,8.00
2019-03-13T00:05:00.479Z,7.13
2019-03-13T00:07:32.386Z,7.50
2019-03-13T00:10:01.673Z,6.23
2019-03-13T00:12:32.623Z,6.30
2019-03-13T00:15:01.976Z,5.50
2019-03-13T00:17:31.193Z,6.30
2019-03-13T00:20:00.485Z,5.00
2019-03-13T00:22:29.642Z,6.03
2019-03-13T00:24:58.886Z,5.47
2019-03-13T00:27:31.662Z,5.33
2019-03-13T00:30:01.071Z,4.40
2019-03-13T00:32:30.346Z,4.30
2019-03-13T00:34:59.527Z,4.90
2019-03-13T00:37:28.714Z,5.17
2019-03-13T00:39:57.862Z,6.20
2019-03-13T00:42:27.098Z,4.70
2019-03-13T00:44:56.281Z,3.70
2019-03-13T00:47:28.271Z,3.60
2019-03-13T00:49:57.394Z,3.63
2019-03-13T00:52:26.627Z,5.17
2019-03-13T00:54:55.813Z,4.57
2019-03-13T00:57:25.088Z,4.00
2019-03-13T00:59:54.259Z,3.03
2019-03-13T01:02:30.105Z,2.40
2019-03-13T01:05:04.761Z,5.57
2019-03-13T01:07:33.994Z,3.97
2019-03-13T01:10:03.188Z,3.57
2019-03-13T01:12:32.385Z,4.10
2019-03-13T01:15:01.583Z,5.63
2019-03-13T01:17:30.743Z,2.67
2019-03-13T01:19:59.959Z,3.07
2019-03-13T01:22:29.144Z,4.67
2019-03-13T01:24:58.349Z,4.23
2019-03-13T01:27:27.536Z,4.10
2019-03-13T01:30:00.262Z,9.97
2019-03-13T01:32:51.447Z,5.83
2019-03-13T01:35:39.616Z,3.33
2019-03-13T01:38:09.386Z,5.57
2019-03-13T01:40:38.754Z,5.27
2019-03-13T01:43:11.162Z,5.30
2019-03-13T01:45:40.350Z,4.00
2019-03-13T01:48:09.451Z,4.07
2019-03-13T01:50:39.179Z,6.33
2019-03-13T01:53:08.379Z,6.40
2019-03-13T01:55:40.179Z,6.33
2019-03-13T01:58:09.643Z,4.23
2019-03-13T02:00:38.886Z,6.80
2019-03-13T02:03:08.270Z,4.70
2019-03-13T02:05:37.955Z,11.37
2019-03-13T02:08:11.889Z,7.93
2019-03-13T02:10:41.055Z,3.90
2019-03-13T02:13:10.252Z,6.57
2019-03-13T02:15:39.545Z,9.93
2019-03-13T02:18:08.785Z,7.50
2019-03-13T02:20:37.933Z,5.10
2019-03-13T02:23:07.422Z,6.50
2019-03-13T02:25:36.625Z,10.77
2019-03-13T02:28:05.778Z,6.20
2019-03-13T02:30:34.963Z,8.60
2019-03-13T02:33:04.180Z,9.50
2019-03-13T02:35:33.340Z,9.80
2019-03-13T02:38:02.511Z,8.33
2019-03-13T02:40:31.737Z,5.93
2019-03-13T02:43:01.105Z,9.60
2019-03-13T02:45:30.290Z,12.90
2019-03-13T02:47:59.533Z,13.83
2019-03-13T02:50:28.731Z,8.37
2019-03-13T02:52:57.967Z,15.20
2019-03-13T02:55:27.126Z,12.40
2019-03-13T02:57:56.928Z,7.17
2019-03-13T03:00:54.289Z,11.00
2019-03-13T03:03:35.085Z,5.43
2019-03-13T03:06:07.282Z,10.20
2019-03-13T03:08:36.542Z,6.47
2019-03-13T03:11:05.716Z,8.93
2019-03-13T03:13:34.922Z,11.60
2019-03-13T03:16:04.070Z,9.33
2019-03-13T03:18:33.253Z,11.03
2019-03-13T03:21:02.619Z,10.00
2019-03-13T03:23:31.731Z,14.47
2019-03-13T03:26:00.955Z,14.80
2019-03-13T03:28:30.088Z,14.93
2019-03-13T03:30:59.635Z,11.17
2019-03-13T03:33:28.864Z,9.53
2019-03-13T03:35:58.031Z,13.77
2019-03-13T03:38:28.995Z,8.83
2019-03-13T03:40:58.141Z,13.07
2019-03-13T03:43:40.257Z,9.23
2019-03-13T03:45:59.059Z,8.50
2019-03-13T03:48:28.261Z,13.23
2019-03-13T03:50:57.497Z,8.23
2019-03-13T03:53:26.695Z,15.50
2019-03-13T03:55:56.056Z,11.43
2019-03-13T03:58:29.062Z,9.93
2019-03-13T04:00:58.226Z,20.10
2019-03-13T04:03:36.908Z,13.47
2019-03-13T04:06:09.823Z,13.03
2019-03-13T04:08:38.975Z,9.17
2019-03-13T04:11:08.154Z,10.73
2019-03-13T04:13:37.436Z,12.27
2019-03-13T04:16:06.653Z,9.83
2019-03-13T04:18:36.330Z,12.60
2019-03-13T04:21:05.610Z,11.93
2019-03-13T04:23:35.025Z,11.00
2019-03-13T04:26:05.601Z,14.37
2019-03-13T04:28:34.765Z,14.00
2019-03-13T04:31:04.270Z,14.40
2019-03-13T04:33:34.354Z,16.37
2019-03-13T04:36:03.574Z,12.97
2019-03-13T04:38:32.815Z,13.30
2019-03-13T04:41:03.114Z,13.83
2019-03-13T04:43:32.747Z,17.87
2019-03-13T04:46:01.934Z,14.37
2019-03-13T04:48:31.144Z,14.77
2019-03-13T04:51:00.599Z,10.97
2019-03-13T04:53:30.214Z,16.13
2019-03-13T04:55:59.636Z,13.27
2019-03-13T04:58:28.886Z,10.93
2019-03-13T05:00:58.085Z,14.17
2019-03-13T05:03:29.974Z,11.60
2019-03-13T05:06:05.455Z,10.17
2019-03-13T05:09:06.924Z,10.63
2019-03-13T05:11:36.070Z,9.47
2019-03-13T05:14:05.397Z,12.93
2019-03-13T05:16:34.834Z,12.27
2019-03-13T05:19:04.047Z,13.33
2019-03-13T05:21:33.336Z,11.77
2019-03-13T05:24:02.639Z,16.97
2019-03-13T05:26:31.846Z,12.60
2019-03-13T05:29:01.537Z,15.10
2019-03-13T05:31:30.780Z,14.17
2019-03-13T05:34:03.647Z,15.77
2019-03-13T05:36:32.877Z,20.10
2019-03-13T05:39:02.065Z,20.80
2019-03-13T05:41:31.370Z,10.67
2019-03-13T05:44:00.546Z,16.47
2019-03-13T05:46:29.770Z,15.70
2019-03-13T05:48:58.944Z,15.37
2019-03-13T05:51:28.233Z,15.57
2019-03-13T05:53:57.733Z,15.33
2019-03-13T05:56:26.943Z,18.70
2019-03-13T05:58:56.113Z,12.47
2019-03-13T06:01:26.104Z,14.13
2019-03-13T06:03:55.285Z,15.63
2019-03-13T06:06:28.338Z,13.30
2019-03-13T06:08:57.528Z,14.97
2019-03-13T06:11:27.880Z,16.40
2019-03-13T06:13:57.143Z,13.40
2019-03-13T06:16:26.354Z,17.03
2019-03-13T06:18:55.754Z,9.37
2019-03-13T06:21:27.488Z,13.90
2019-03-13T06:23:58.689Z,20.90
2019-03-13T06:26:28.875Z,13.00
2019-03-13T06:28:59.500Z,13.23
2019-03-13T06:31:29.537Z,18.90
2019-03-13T06:33:58.795Z,13.20
2019-03-13T06:36:28.279Z,11.57
2019-03-13T06:38:58.788Z,16.90
2019-03-13T06:41:29.436Z,10.57
2019-03-13T06:43:59.011Z,15.07
2019-03-13T06:46:28.480Z,18.53
2019-03-13T06:48:57.807Z,15.87
2019-03-13T06:51:28.974Z,13.10
2019-03-13T06:54:04.366Z,18.93
2019-03-13T06:56:34.022Z,15.03
2019-03-13T06:59:23.778Z,14.40
2019-03-13T07:02:02.520Z,11.47
2019-03-13T07:04:59.738Z,13.43
2019-03-13T07:07:39.043Z,10.97
2019-03-13T07:10:23.221Z,12.53
2019-03-13T07:13:06.086Z,19.13
2019-03-13T07:15:45.929Z,14.63
2019-03-13T07:18:21.641Z,17.13
2019-03-13T07:21:08.187Z,18.20
2019-03-13T07:23:59.110Z,10.23
2019-03-13T07:26:35.721Z,7.63
2019-03-13T07:29:32.222Z,8.70
2019-03-13T07:32:38.363Z,17.43
2019-03-13T07:35:20.377Z,10.23
2019-03-13T07:38:23.216Z,9.47
2019-03-13T07:41:14.636Z,10.83
2019-03-13T07:44:16.554Z,12.00
2019-03-13T07:47:07.518Z,15.67
2019-03-13T07:49:59.324Z,13.40
2019-03-13T07:52:45.087Z,12.63
2019-03-13T07:55:35.892Z,12.97
2019-03-13T07:58:15.007Z,11.97
2019-03-13T08:01:17.999Z,13.53
2019-03-13T08:04:05.576Z,8.77
2019-03-13T08:06:56.540Z,17.77
2019-03-13T08:09:54.173Z,12.73
2019-03-13T08:12:39.833Z,11.57
2019-03-13T08:15:39.113Z,14.00
2019-03-13T08:18:27.219Z,10.73
2019-03-13T08:21:21.082Z,12.17
2019-03-13T08:24:18.323Z,16.87
2019-03-13T08:27:03.819Z,13.03
2019-03-13T08:29:44.396Z,11.57
2019-03-13T08:32:35.990Z,10.43
2019-03-13T08:35:21.098Z,10.23
2019-03-13T08:38:04.501Z,10.63
2019-03-13T08:40:52.638Z,7.83
2019-03-13T08:43:31.290Z,13.10
2019-03-13T08:46:18.141Z,10.40
2019-03-13T08:49:12.123Z,11.23
2019-03-13T08:51:47.691Z,15.23
2019-03-13T08:54:41.953Z,12.60
2019-03-13T08:57:24.202Z,7.37
2019-03-13T09:00:18.806Z,10.47
2019-03-13T09:03:15.363Z,9.50
2019-03-13T09:05:57.711Z,11.23
2019-03-13T09:08:52.864Z,9.63
2019-03-13T09:11:39.392Z,13.17
2019-03-13T09:14:26.767Z,15.87
2019-03-13T09:17:13.755Z,11.73
2019-03-13T09:20:02.356Z,17.73
2019-03-13T09:23:03.385Z,12.13
2019-03-13T09:26:06.815Z,9.67
2019-03-13T09:28:57.726Z,15.90
2019-03-13T09:31:39.047Z,13.37
2019-03-13T09:34:30.915Z,11.90
2019-03-13T09:37:17.661Z,16.83
2019-03-13T09:40:05.824Z,7.93
2019-03-13T09:42:54.124Z,9.03
2019-03-13T09:45:39.593Z,13.17
2019-03-13T09:48:33.587Z,10.20
2019-03-13T09:51:10.238Z,10.97
2019-03-13T09:53:52.345Z,10.97
2019-03-13T09:56:39.135Z,10.87
2019-03-13T09:59:24.698Z,8.60
2019-03-13T10:02:13.102Z,16.87
2019-03-13T10:04:58.753Z,12.03
2019-03-13T10:07:45.444Z,12.90
2019-03-13T10:10:28.333Z,16.67
2019-03-13T10:13:16.428Z,10.13
2019-03-13T10:16:10.639Z,15.87
2019-03-13T10:19:01.645Z,12.10
2019-03-13T10:21:59.343Z,10.07
2019-03-13T10:24:50.272Z,11.20
2019-03-13T10:27:43.851Z,10.03
2019-03-13T10:30:20.630Z,12.53
2019-03-13T10:33:07.223Z,10.63
2019-03-13T10:35:49.740Z,13.70
2019-03-13T10:38:50.043Z,10.70
2019-03-13T10:41:34.371Z,13.13
2019-03-13T10:44:15.220Z,13.43
2019-03-13T10:46:54.545Z,7.53
2019-03-13T10:49:36.579Z,9.03
2019-03-13T10:52:25.593Z,10.43
2019-03-13T10:55:14.284Z,13.53
2019-03-13T10:58:05.534Z,7.43
2019-03-13T11:00:49.940Z,7.73
2019-03-13T11:03:32.295Z,13.07
2019-03-13T11:06:30.010Z,10.33
2019-03-13T11:09:20.898Z,8.53
2019-03-13T11:12:11.801Z,7.83
2019-03-13T11:15:09.155Z,8.37
2019-03-13T11:17:51.078Z,13.20
2019-03-13T11:20:37.581Z,7.87
2019-03-13T11:23:31.509Z,9.10
2019-03-13T11:26:24.615Z,12.50
2019-03-13T11:29:21.663Z,11.30
2019-03-13T11:32:05.886Z,11.00
2019-03-13T11:34:54.139Z,12.20
2019-03-13T11:37:34.722Z,8.47
2019-03-13T11:40:25.390Z,13.53
2019-03-13T11:43:14.521Z,12.07
2019-03-13T11:46:20.960Z,12.80
2019-03-13T11:49:10.395Z,17.07
2019-03-13T11:51:49.960Z,17.23
2019-03-13T11:54:43.990Z,11.50
2019-03-13T11:57:19.817Z,17.67
2019-03-13T12:00:05.285Z,12.10
2019-03-13T12:02:51.944Z,13.03
2019-03-13T12:05:38.425Z,14.73
2019-03-13T12:08:45.057Z,6.97
2019-03-13T12:11:34.246Z,12.07
2019-03-13T12:14:31.584Z,13.83
2019-03-13T12:17:11.552Z,12.13
2019-03-13T12:20:01.887Z,8.70
2019-03-13T12:22:56.192Z,12.47
2019-03-13T12:25:36.113Z,9.43
2019-03-13T12:28:33.634Z,15.60
2019-03-13T12:31:30.844Z,9.90
2019-03-13T12:34:17.645Z,8.63
2019-03-13T12:36:59.637Z,6.93
2019-03-13T12:39:46.485Z,8.83
2019-03-13T12:42:46.609Z,10.33
2019-03-13T12:45:43.892Z,10.30
2019-03-13T12:48:30.449Z,11.27
2019-03-13T12:51:17.531Z,18.27
2019-03-13T12:54:00.074Z,15.43
2019-03-13T12:56:50.608Z,14.13
2019-03-13T12:59:53.871Z,10.77
2019-03-13T13:02:36.232Z,15.37
2019-03-13T13:05:24.486Z,10.70
2019-03-13T13:08:11.298Z,8.53
2019-03-13T13:11:14.560Z,11.70
2019-03-13T13:14:09.903Z,9.37
2019-03-13T13:16:57.069Z,14.63
2019-03-13T13:19:26.365Z,15.30
2019-03-13T13:21:58.515Z,10.23
2019-03-13T13:24:27.909Z,9.27
2019-03-13T13:26:57.152Z,6.07
2019-03-13T13:29:26.345Z,7.37
2019-03-13T13:31:55.850Z,8.10
2019-03-13T13:34:25.058Z,8.37
2019-03-13T13:36:54.562Z,5.70
2019-03-13T13:39:23.893Z,9.33
2019-03-13T13:41:53.059Z,7.30
2019-03-13T13:44:22.732Z,6.77
2019-03-13T13:46:52.094Z,7.70
2019-03-13T13:49:21.345Z,8.37
2019-03-13T13:51:50.772Z,10.00
2019-03-13T13:54:20.068Z,9.90
2019-03-13T13:56:49.243Z,9.00
2019-03-13T13:59:18.472Z,9.37
2019-03-13T14:01:47.765Z,8.77
2019-03-13T14:04:16.958Z,10.60
2019-03-13T14:06:46.310Z,10.97
2019-03-13T14:09:15.586Z,10.80
2019-03-13T14:11:50.889Z,12.10
2019-03-13T14:14:20.124Z,11.63
2019-03-13T14:16:49.587Z,14.37
2019-03-13T14:19:18.779Z,10.87
2019-03-13T14:21:48.935Z,11.60
2019-03-13T14:24:18.333Z,11.90
2019-03-13T14:26:47.713Z,10.30
2019-03-13T14:29:17.204Z,11.60
2019-03-13T14:31:46.669Z,14.97
2019-03-13T14:34:19.542Z,12.70
2019-03-13T14:36:52.007Z,11.57
2019-03-13T14:39:22.270Z,15.10
2019-03-13T14:41:51.696Z,13.17
2019-03-13T14:44:20.982Z,8.73
2019-03-13T14:46:52.077Z,9.47
2019-03-13T14:49:21.323Z,8.90
2019-03-13T14:51:50.860Z,8.57
2019-03-13T14:54:20.212Z,6.37
2019-03-13T14:56:50.527Z,6.83
2019-03-13T14:59:22.876Z,8.67
2019-03-13T15:02:04.343Z,7.63
2019-03-13T15:04:33.649Z,7.40
2019-03-13T15:07:02.963Z,7.03
2019-03-13T15:09:32.820Z,8.07
2019-03-13T15:12:02.012Z,9.37
2019-03-13T15:14:34.194Z,9.70
2019-03-13T15:17:04.507Z,9.10
2019-03-13T15:19:33.897Z,10.37
2019-03-13T15:22:03.055Z,12.10
2019-03-13T15:24:32.428Z,14.37
2019-03-13T15:27:02.179Z,14.80
2019-03-13T15:29:32.351Z,12.73
2019-03-13T15:32:01.538Z,12.63
2019-03-13T15:34:33.261Z,12.97
2019-03-13T15:37:02.548Z,15.30
2019-03-13T15:39:34.242Z,16.90
2019-03-13T15:42:03.479Z,15.27
2019-03-13T15:44:32.753Z,17.53
2019-03-13T15:47:04.187Z,11.47
2019-03-13T15:49:33.564Z,22.30
2019-03-13T15:52:03.093Z,25.10
2019-03-13T15:54:32.668Z,21.00
2019-03-13T15:57:01.998Z,10.70
2019-03-13T15:59:31.284Z,9.03
2019-03-13T16:02:02.615Z,10.30
2019-03-13T16:04:32.073Z,11.60
2019-03-13T16:07:01.394Z,10.33
2019-03-13T16:09:30.657Z,7.10
2019-03-13T16:11:59.906Z,11.53
2019-03-13T16:14:29.298Z,11.97
2019-03-13T16:17:00.379Z,4.47
2019-03-13T16:19:30.476Z,6.87
2019-03-13T16:21:59.830Z,7.80
2019-03-13T16:24:29.072Z,5.40
2019-03-13T16:26:58.330Z,9.80
2019-03-13T16:29:30.830Z,6.17
2019-03-13T16:32:00.028Z,5.47
2019-03-13T16:34:29.195Z,6.30
2019-03-13T16:36:58.596Z,7.97
2019-03-13T16:39:31.486Z,8.87
2019-03-13T16:42:01.183Z,4.70
2019-03-13T16:44:30.742Z,5.90
2019-03-13T16:47:00.016Z,6.67
2019-03-13T16:49:29.212Z,8.57
2019-03-13T16:51:58.456Z,11.00
2019-03-13T16:54:27.715Z,6.37
2019-03-13T16:56:56.916Z,7.17
2019-03-13T16:59:26.342Z,6.70
2019-03-13T17:01:57.117Z,8.67
2019-03-13T17:04:26.446Z,8.53
2019-03-13T17:06:55.982Z,6.57
2019-03-13T17:09:25.234Z,7.10
2019-03-13T17:11:54.353Z,6.90
2019-03-13T17:14:23.831Z,11.73
2019-03-13T17:16:52.974Z,6.67
2019-03-13T17:19:22.286Z,8.23
2019-03-13T17:21:51.527Z,12.10
2019-03-13T17:24:20.749Z,9.30
2019-03-13T17:26:52.199Z,11.27
2019-03-13T17:29:21.371Z,10.73
2019-03-13T17:31:52.747Z,8.93
2019-03-13T17:34:23.990Z,12.70
2019-03-13T17:36:53.218Z,9.30
2019-03-13T17:39:22.650Z,10.57
2019-03-13T17:41:52.134Z,10.60
2019-03-13T17:44:21.541Z,11.57
2019-03-13T17:46:50.706Z,16.70
2019-03-13T17:49:22.759Z,15.37
2019-03-13T17:51:51.946Z,13.77
2019-03-13T17:54:21.192Z,11.87
2019-03-13T17:56:50.411Z,10.40
2019-03-13T17:59:21.291Z,17.50
2019-03-13T18:01:50.614Z,10.40
2019-03-13T18:04:24.641Z,9.47
2019-03-13T18:06:53.807Z,8.60
2019-03-13T18:09:23.063Z,8.83
2019-03-13T18:11:52.234Z,12.73
2019-03-13T18:14:21.464Z,13.10
2019-03-13T18:16:52.736Z,10.27
2019-03-13T18:19:24.991Z,11.87
2019-03-13T18:21:54.522Z,13.00
2019-03-13T18:24:44.811Z,11.50
2019-03-13T18:27:14.141Z,12.73
2019-03-13T18:29:45.720Z,7.97
2019-03-13T18:32:15.014Z,12.87
2019-03-13T18:34:47.329Z,10.97
2019-03-13T18:37:16.540Z,11.50
2019-03-13T18:39:48.855Z,13.30
2019-03-13T18:42:17.991Z,13.57
2019-03-13T18:44:47.140Z,13.30
2019-03-13T18:47:16.698Z,12.13
2019-03-13T18:49:45.877Z,18.63
2019-03-13T18:52:15.156Z,13.27
2019-03-13T18:54:44.420Z,19.33
2019-03-13T18:57:15.932Z,12.83
2019-03-13T18:59:45.134Z,13.53
2019-03-13T19:02:17.197Z,12.40
2019-03-13T19:04:46.398Z,17.87
2019-03-13T19:07:18.634Z,13.20
2019-03-13T19:09:50.013Z,16.47
2019-03-13T19:12:22.951Z,17.50
2019-03-13T19:14:52.280Z,17.57
2019-03-13T19:17:21.469Z,15.07
2019-03-13T19:19:50.799Z,13.93
2019-03-13T19:22:20.072Z,14.23
2019-03-13T19:24:49.878Z,12.60
2019-03-13T19:27:22.183Z,17.13
2019-03-13T19:29:51.363Z,16.00
2019-03-13T19:32:20.553Z,13.77
2019-03-13T19:34:49.775Z,14.40
2019-03-13T19:37:20.083Z,13.47
2019-03-13T19:39:49.314Z,16.07
2019-03-13T19:42:21.550Z,13.87
2019-03-13T19:44:53.604Z,16.40
2019-03-13T19:47:22.864Z,18.10
2019-03-13T19:49:59.465Z,12.53
2019-03-13T19:52:28.683Z,11.30
2019-03-13T19:54:57.843Z,10.60
2019-03-13T19:57:27.897Z,10.97
2019-03-13T19:59:57.117Z,9.90
2019-03-13T20:02:35.126Z,12.17
2019-03-13T20:05:04.308Z,10.37
2019-03-13T20:07:33.979Z,11.47
2019-03-13T20:10:03.367Z,7.37
2019-03-13T20:12:33.466Z,10.73
2019-03-13T20:15:02.679Z,11.23
2019-03-13T20:17:32.222Z,7.20
2019-03-13T20:20:02.570Z,9.20
2019-03-13T20:22:35.113Z,12.33
2019-03-13T20:25:04.283Z,9.90
2019-03-13T20:27:41.199Z,8.47
2019-03-13T20:30:14.786Z,8.03
2019-03-13T20:32:44.379Z,11.30
2019-03-13T20:35:13.571Z,13.40
2019-03-13T20:37:42.770Z,15.53
2019-03-13T20:40:17.798Z,14.03
2019-03-13T20:42:47.031Z,19.20
2019-03-13T20:45:18.872Z,17.20
2019-03-13T20:47:48.111Z,13.63
2019-03-13T20:50:17.385Z,12.03
2019-03-13T20:52:48.845Z,17.47
2019-03-13T20:55:19.328Z,16.43
2019-03-13T20:57:48.785Z,21.43
2019-03-13T21:00:20.343Z,15.43
2019-03-13T21:02:50.042Z,19.53
2019-03-13T21:05:19.877Z,12.00
2019-03-13T21:07:49.120Z,19.57
2019-03-13T21:10:18.583Z,15.87
2019-03-13T21:12:47.839Z,14.23
2019-03-13T21:15:17.621Z,14.50
2019-03-13T21:17:46.969Z,17.47
2019-03-13T21:20:16.510Z,16.13
2019-03-13T21:22:45.854Z,17.83
2019-03-13T21:25:15.407Z,17.17
2019-03-13T21:27:47.553Z,15.57
2019-03-13T21:30:22.163Z,19.37
2019-03-13T21:32:51.946Z,13.93
2019-03-13T21:35:21.175Z,16.90
2019-03-13T21:37:50.462Z,15.40
2019-03-13T21:40:19.844Z,13.90
2019-03-13T21:42:49.093Z,17.07
2019-03-13T21:45:22.892Z,15.47
2019-03-13T21:47:49.841Z,13.03
2019-03-13T21:50:20.598Z,16.97
2019-03-13T21:52:51.842Z,18.73
2019-03-13T21:55:21.708Z,19.60
2019-03-13T21:57:52.297Z,14.50
2019-03-13T22:00:22.712Z,13.43
2019-03-13T22:02:51.882Z,11.97
2019-03-13T22:05:26.356Z,15.60
2019-03-13T22:07:52.157Z,16.97
2019-03-13T22:10:21.528Z,11.27
2019-03-13T22:12:50.797Z,15.53
2019-03-13T22:15:19.947Z,17.30
2019-03-13T22:17:49.176Z,10.57
2019-03-13T22:20:18.341Z,12.60
2019-03-13T22:22:48.004Z,13.73
2019-03-13T22:25:17.475Z,10.37
2019-03-13T22:27:46.701Z,11.13
2019-03-13T22:30:20.782Z,8.13
2019-03-13T22:32:49.955Z,8.93
2019-03-13T22:35:19.161Z,10.23
2019-03-13T22:37:48.453Z,8.13
2019-03-13T22:40:17.705Z,8.17
2019-03-13T22:42:46.932Z,8.40
2019-03-13T22:45:19.346Z,9.47
2019-03-13T22:47:48.504Z,7.67
2019-03-13T22:50:18.368Z,7.23
2019-03-13T22:52:47.547Z,7.53
2019-03-13T22:55:16.911Z,4.10
2019-03-13T22:57:46.092Z,6.13
2019-03-13T23:00:59.014Z,4.07
2019-03-13T23:03:29.757Z,7.33
2019-03-13T23:05:59.095Z,10.00
2019-03-13T23:08:31.385Z,5.80
2019-03-13T23:11:01.085Z,6.57
2019-03-13T23:13:30.289Z,5.13
2019-03-13T23:15:59.859Z,5.03
2019-03-13T23:18:29.054Z,6.43
2019-03-13T23:20:58.790Z,11.03
2019-03-13T23:23:28.153Z,11.13
2019-03-13T23:25:57.683Z,9.73
2019-03-13T23:28:27.038Z,5.90
2019-03-13T23:30:58.580Z,11.40
2019-03-13T23:33:30.206Z,10.53
2019-03-13T23:35:59.505Z,8.00
2019-03-13T23:38:28.900Z,6.70
2019-03-13T23:40:58.686Z,7.50
2019-03-13T23:43:32.174Z,8.20
2019-03-13T23:46:01.985Z,8.37
2019-03-13T23:48:31.517Z,10.50
2019-03-13T23:51:00.950Z,3.77
2019-03-13T23:53:30.123Z,3.13
2019-03-13T23:55:59.363Z,5.30
2019-03-13T23:58:28.626Z,9.87
